PWSweather.com
Personal Weather Stations
Station Observations

MakarauRodneyNZ

Lat: -36.52421, Lon: 174.47572

Elevation: 606

Station Type: Davis VP2

http://kaiparaweather.dynu.net/index.php

Latest ConditionsUpdated 11:50:01 AM GMT+12:12 Tuesday, Oct 22, 2019
Currently Today's Max Today's Min Today's Average
Temperature 61.1°F16.2°C 62.6°F17.0°C 54.5°F12.5°C 57.3°F14.1°C
Dew Point 61.1°F16.2°C 62.0°F16.7°C 54.5°F12.5°C 57.3°F14.1°C
Winds 10.4 mph WSW16.7 kmh WSW 20.7 mph -33.3 kmh - - 13.3 mph 21.4 kmh
Wind Gusts 15.0 mph24.1 kmh 27.6 mph44.4 kmh - -
Humidity 100% 100% 98% 100%
Pressure 29.84 in1010.5 mb 29.86 in1011.2 mb 29.81 in1009.5 mb -
Hour Temp Dew Point Humidity Winds Wind Gusts Pressure Precip Precip Rate Daily Precip Total
11:50 AM 61.1°F16.2°C 61.1°F16.2°C 100% 10.4 mph WSW16.7 kmh WSW 15.0 mph24.1 kmh 29.84 in1010.5 mb - 0.00 in0.0 mm 0.00 in0.0 mm
11:40 AM 62.1°F16.7°C 61.8°F16.6°C 99% 9.2 mph WSW14.8 kmh WSW 11.5 mph18.5 kmh 29.84 in1010.5 mb - 0.00 in0.0 mm 0.00 in0.0 mm
11:30 AM 61.8°F16.6°C 61.3°F16.3°C 98% 13.8 mph W22.2 kmh W 19.6 mph31.5 kmh 29.84 in1010.5 mb - 0.00 in0.0 mm 0.00 in0.0 mm
11:20 AM 62.2°F16.8°C 61.6°F16.4°C 98% 12.7 mph W20.4 kmh W 26.5 mph42.6 kmh 29.84 in1010.5 mb - 0.00 in0.0 mm 0.00 in0.0 mm
11:10 AM 62.6°F17.0°C 62.0°F16.7°C 98% 12.7 mph W20.4 kmh W 19.6 mph31.5 kmh 29.84 in1010.5 mb - 0.00 in0.0 mm 0.00 in0.0 mm
11:00 AM 61.8°F16.6°C 61.8°F16.6°C 100% 11.5 mph WSW18.5 kmh WSW 13.8 mph22.2 kmh 29.84 in1010.5 mb - 0.00 in0.0 mm 0.00 in0.0 mm
10:50 AM 61.5°F16.4°C 61.0°F16.1°C 98% 9.2 mph WSW14.8 kmh WSW 10.4 mph16.7 kmh 29.85 in1010.8 mb - 0.00 in0.0 mm 0.00 in0.0 mm
10:40 AM 61.9°F16.6°C 61.9°F16.6°C 100% 13.8 mph WSW22.2 kmh WSW 21.9 mph35.2 kmh 29.85 in1010.8 mb - 0.00 in0.0 mm 0.00 in0.0 mm
10:30 AM 62.1°F16.7°C 61.8°F16.6°C 99% 15.0 mph WSW24.1 kmh WSW 18.4 mph29.6 kmh 29.85 in1010.8 mb - 0.00 in0.0 mm 0.00 in0.0 mm
10:20 AM 61.0°F16.1°C 61.0°F16.1°C 100% 10.4 mph WSW16.7 kmh WSW 24.2 mph38.9 kmh 29.85 in1010.8 mb - 0.00 in0.0 mm 0.00 in0.0 mm
10:10 AM 61.6°F16.4°C 61.6°F16.4°C 100% 13.8 mph W22.2 kmh W 27.6 mph44.4 kmh 29.85 in1010.8 mb - 0.00 in0.0 mm 0.00 in0.0 mm
10:00 AM 61.8°F16.6°C 61.8°F16.6°C 100% 16.1 mph W25.9 kmh W 27.6 mph44.4 kmh 29.85 in1010.8 mb - 0.00 in0.0 mm 0.00 in0.0 mm
09:50 AM 60.7°F15.9°C 60.7°F15.9°C 100% 13.8 mph W22.2 kmh W 25.3 mph40.7 kmh 29.85 in1010.8 mb - 0.00 in0.0 mm 0.00 in0.0 mm
09:40 AM 59.9°F15.5°C 59.9°F15.5°C 100% 10.4 mph W16.7 kmh W 17.3 mph27.8 kmh 29.85 in1010.8 mb - 0.00 in0.0 mm 0.00 in0.0 mm
09:30 AM 60.4°F15.8°C 60.4°F15.8°C 100% 16.1 mph WNW25.9 kmh WNW 21.9 mph35.2 kmh 29.85 in1010.8 mb - 0.00 in0.0 mm 0.00 in0.0 mm
09:20 AM 60.5°F15.8°C 60.5°F15.8°C 100% 15.0 mph WNW24.1 kmh WNW 20.7 mph33.3 kmh 29.85 in1010.8 mb - 0.00 in0.0 mm 0.00 in0.0 mm
09:10 AM 58.8°F14.9°C 58.8°F14.9°C 100% 11.5 mph WSW18.5 kmh WSW 18.4 mph29.6 kmh 29.85 in1010.8 mb - 0.00 in0.0 mm 0.00 in0.0 mm
09:00 AM 57.7°F14.3°C 57.7°F14.3°C 100% 11.5 mph WNW18.5 kmh WNW 18.4 mph29.6 kmh 29.85 in1010.8 mb - 0.00 in0.0 mm 0.00 in0.0 mm
08:50 AM 58.5°F14.7°C 58.5°F14.7°C 100% 8.1 mph WSW13.0 kmh WSW 18.4 mph29.6 kmh 29.85 in1010.8 mb - 0.00 in0.0 mm 0.00 in0.0 mm
08:40 AM 59.4°F15.2°C 59.4°F15.2°C 100% 11.5 mph WSW18.5 kmh WSW 15.0 mph24.1 kmh 29.85 in1010.8 mb - 0.00 in0.0 mm 0.00 in0.0 mm
08:30 AM 58.9°F14.9°C 58.9°F14.9°C 100% 10.4 mph WSW16.7 kmh WSW 13.8 mph22.2 kmh 29.85 in1010.8 mb - 0.00 in0.0 mm 0.00 in0.0 mm
08:20 AM 58.7°F14.8°C 58.7°F14.8°C 100% 9.2 mph WSW14.8 kmh WSW 17.3 mph27.8 kmh 29.85 in1010.8 mb - 0.00 in0.0 mm 0.00 in0.0 mm
08:10 AM 58.9°F14.9°C 58.9°F14.9°C 100% 11.5 mph WSW18.5 kmh WSW 13.8 mph22.2 kmh 29.85 in1010.8 mb - 0.00 in0.0 mm 0.00 in0.0 mm
08:00 AM 58.6°F14.8°C 58.6°F14.8°C 100% 9.2 mph WSW14.8 kmh WSW 17.3 mph27.8 kmh 29.84 in1010.5 mb - 0.00 in0.0 mm 0.00 in0.0 mm
07:50 AM 57.8°F14.3°C 57.8°F14.3°C 100% 12.7 mph NW20.4 kmh NW 19.6 mph31.5 kmh 29.84 in1010.5 mb - 0.00 in0.0 mm 0.00 in0.0 mm
07:40 AM 57.2°F14.0°C 57.2°F14.0°C 100% 10.4 mph W16.7 kmh W 18.4 mph29.6 kmh 29.84 in1010.5 mb - 0.00 in0.0 mm 0.00 in0.0 mm
07:30 AM 56.6°F13.7°C 56.6°F13.7°C 100% 15.0 mph W24.1 kmh W 23.0 mph37.0 kmh 29.84 in1010.5 mb - 0.00 in0.0 mm 0.00 in0.0 mm
07:20 AM 56.9°F13.8°C 56.9°F13.8°C 100% 10.4 mph WSW16.7 kmh WSW 12.7 mph20.4 kmh 29.83 in1010.2 mb - 0.00 in0.0 mm 0.00 in0.0 mm
07:10 AM 56.6°F13.7°C 56.6°F13.7°C 100% 11.5 mph WNW18.5 kmh WNW 25.3 mph40.7 kmh 29.84 in1010.5 mb - 0.00 in0.0 mm 0.00 in0.0 mm
07:00 AM 56.7°F13.7°C 56.7°F13.7°C 100% 9.2 mph WSW14.8 kmh WSW 12.7 mph20.4 kmh 29.84 in1010.5 mb - 0.00 in0.0 mm 0.00 in0.0 mm
06:50 AM 56.4°F13.6°C 56.4°F13.6°C 100% 13.8 mph W22.2 kmh W 15.0 mph24.1 kmh 29.83 in1010.2 mb - 0.00 in0.0 mm 0.00 in0.0 mm
06:40 AM 55.9°F13.3°C 55.9°F13.3°C 100% 13.8 mph NW22.2 kmh NW 19.6 mph31.5 kmh 29.83 in1010.2 mb - 0.00 in0.0 mm 0.00 in0.0 mm
06:30 AM 55.5°F13.1°C 55.5°F13.1°C 100% 13.8 mph NW22.2 kmh NW 19.6 mph31.5 kmh 29.83 in1010.2 mb - 0.00 in0.0 mm 0.00 in0.0 mm
06:20 AM 55.2°F12.9°C 55.2°F12.9°C 100% 12.7 mph W20.4 kmh W 18.4 mph29.6 kmh 29.83 in1010.2 mb - 0.00 in0.0 mm 0.00 in0.0 mm
06:10 AM 55.0°F12.8°C 55.0°F12.8°C 100% 12.7 mph NW20.4 kmh NW 19.6 mph31.5 kmh 29.83 in1010.2 mb - 0.00 in0.0 mm 0.00 in0.0 mm
06:00 AM 55.0°F12.8°C 55.0°F12.8°C 100% 10.4 mph WSW16.7 kmh WSW 17.3 mph27.8 kmh 29.83 in1010.2 mb - 0.00 in0.0 mm 0.00 in0.0 mm
05:50 AM 55.0°F12.8°C 55.0°F12.8°C 100% 12.7 mph WSW20.4 kmh WSW 21.9 mph35.2 kmh 29.83 in1010.2 mb - 0.00 in0.0 mm 0.00 in0.0 mm
05:40 AM 55.2°F12.9°C 55.2°F12.9°C 100% 13.8 mph W22.2 kmh W 21.9 mph35.2 kmh 29.82 in1009.8 mb - 0.00 in0.0 mm 0.00 in0.0 mm
05:30 AM 55.3°F12.9°C 55.3°F12.9°C 100% 17.3 mph WNW27.8 kmh WNW 24.2 mph38.9 kmh 29.82 in1009.8 mb - 0.00 in0.0 mm 0.00 in0.0 mm
05:20 AM 55.3°F12.9°C 55.3°F12.9°C 100% 15.0 mph W24.1 kmh W 25.3 mph40.7 kmh 29.82 in1009.8 mb - 0.00 in0.0 mm 0.00 in0.0 mm
05:10 AM 56.0°F13.3°C 56.0°F13.3°C 100% 16.1 mph WSW25.9 kmh WSW 19.6 mph31.5 kmh 29.81 in1009.5 mb - 0.00 in0.0 mm 0.00 in0.0 mm
05:00 AM 55.9°F13.3°C 55.9°F13.3°C 100% 16.1 mph W25.9 kmh W 19.6 mph31.5 kmh 29.81 in1009.5 mb - 0.00 in0.0 mm 0.00 in0.0 mm
04:50 AM 55.8°F13.2°C 55.8°F13.2°C 100% 11.5 mph NW18.5 kmh NW 17.3 mph27.8 kmh 29.81 in1009.5 mb - 0.00 in0.0 mm 0.00 in0.0 mm
04:40 AM 55.8°F13.2°C 55.8°F13.2°C 100% 17.3 mph NW27.8 kmh NW 20.7 mph33.3 kmh 29.81 in1009.5 mb - 0.00 in0.0 mm 0.00 in0.0 mm
04:30 AM 55.9°F13.3°C 55.9°F13.3°C 100% 15.0 mph WNW24.1 kmh WNW 19.6 mph31.5 kmh 29.81 in1009.5 mb - 0.00 in0.0 mm 0.00 in0.0 mm
04:20 AM 55.8°F13.2°C 55.8°F13.2°C 100% 16.1 mph WNW25.9 kmh WNW 23.0 mph37.0 kmh 29.81 in1009.5 mb - 0.00 in0.0 mm 0.00 in0.0 mm
04:10 AM 55.6°F13.1°C 55.6°F13.1°C 100% 19.6 mph WNW31.5 kmh WNW 23.0 mph37.0 kmh 29.81 in1009.5 mb - 0.00 in0.0 mm 0.00 in0.0 mm
04:00 AM 55.8°F13.2°C 55.8°F13.2°C 100% 16.1 mph W25.9 kmh W 18.4 mph29.6 kmh 29.81 in1009.5 mb - 0.00 in0.0 mm 0.00 in0.0 mm
03:50 AM 56.0°F13.3°C 56.0°F13.3°C 100% 15.0 mph NW24.1 kmh NW 19.6 mph31.5 kmh 29.81 in1009.5 mb - 0.00 in0.0 mm 0.00 in0.0 mm
03:40 AM 56.1°F13.4°C 56.1°F13.4°C 100% 16.1 mph WNW25.9 kmh WNW 23.0 mph37.0 kmh 29.81 in1009.5 mb - 0.00 in0.0 mm 0.00 in0.0 mm
03:30 AM 55.9°F13.3°C 55.9°F13.3°C 100% 13.8 mph WNW22.2 kmh WNW 19.6 mph31.5 kmh 29.81 in1009.5 mb - 0.00 in0.0 mm 0.00 in0.0 mm
03:20 AM 56.0°F13.3°C 56.0°F13.3°C 100% 16.1 mph W25.9 kmh W 19.6 mph31.5 kmh 29.81 in1009.5 mb - 0.00 in0.0 mm 0.00 in0.0 mm
03:10 AM 56.1°F13.4°C 56.1°F13.4°C 100% 13.8 mph WNW22.2 kmh WNW 16.1 mph25.9 kmh 29.82 in1009.8 mb - 0.00 in0.0 mm 0.00 in0.0 mm
03:00 AM 56.0°F13.3°C 56.0°F13.3°C 100% 16.1 mph WNW25.9 kmh WNW 19.6 mph31.5 kmh 29.82 in1009.8 mb - 0.00 in0.0 mm 0.00 in0.0 mm
02:50 AM 56.0°F13.3°C 56.0°F13.3°C 100% 15.0 mph W24.1 kmh W 20.7 mph33.3 kmh 29.82 in1009.8 mb - 0.00 in0.0 mm 0.00 in0.0 mm
02:40 AM 55.9°F13.3°C 55.9°F13.3°C 100% 13.8 mph NW22.2 kmh NW 25.3 mph40.7 kmh 29.82 in1009.8 mb - 0.00 in0.0 mm 0.00 in0.0 mm
02:30 AM 55.8°F13.2°C 55.8°F13.2°C 100% 13.8 mph WNW22.2 kmh WNW 16.1 mph25.9 kmh 29.82 in1009.8 mb - 0.00 in0.0 mm 0.00 in0.0 mm
02:20 AM 55.6°F13.1°C 55.6°F13.1°C 100% 20.7 mph WNW33.3 kmh WNW 25.3 mph40.7 kmh 29.82 in1009.8 mb - 0.00 in0.0 mm 0.00 in0.0 mm
02:10 AM 55.8°F13.2°C 55.8°F13.2°C 100% 16.1 mph WNW25.9 kmh WNW 19.6 mph31.5 kmh 29.82 in1009.8 mb - 0.00 in0.0 mm 0.00 in0.0 mm
02:00 AM 55.6°F13.1°C 55.6°F13.1°C 100% 13.8 mph WNW22.2 kmh WNW 18.4 mph29.6 kmh 29.82 in1009.8 mb - 0.00 in0.0 mm 0.00 in0.0 mm
01:50 AM 55.8°F13.2°C 55.8°F13.2°C 100% 15.0 mph W24.1 kmh W 19.6 mph31.5 kmh 29.83 in1010.2 mb - 0.00 in0.0 mm 0.00 in0.0 mm
01:40 AM 55.6°F13.1°C 55.6°F13.1°C 100% 12.7 mph W20.4 kmh W 17.3 mph27.8 kmh 29.83 in1010.2 mb - 0.00 in0.0 mm 0.00 in0.0 mm
01:30 AM 55.4°F13.0°C 55.4°F13.0°C 100% 13.8 mph W22.2 kmh W 18.4 mph29.6 kmh 29.83 in1010.2 mb - 0.00 in0.0 mm 0.00 in0.0 mm
01:20 AM 55.4°F13.0°C 55.4°F13.0°C 100% 12.7 mph WNW20.4 kmh WNW 17.3 mph27.8 kmh 29.84 in1010.5 mb - 0.00 in0.0 mm 0.00 in0.0 mm
01:10 AM 55.5°F13.1°C 55.5°F13.1°C 100% 15.0 mph NW24.1 kmh NW 20.7 mph33.3 kmh 29.84 in1010.5 mb - 0.00 in0.0 mm 0.00 in0.0 mm
01:00 AM 55.5°F13.1°C 55.5°F13.1°C 100% 13.8 mph WNW22.2 kmh WNW 19.6 mph31.5 kmh 29.84 in1010.5 mb - 0.00 in0.0 mm 0.00 in0.0 mm
12:50 AM 55.4°F13.0°C 55.4°F13.0°C 100% 11.5 mph W18.5 kmh W 17.3 mph27.8 kmh 29.85 in1010.8 mb - 0.00 in0.0 mm 0.00 in0.0 mm
12:40 AM 55.1°F12.8°C 55.1°F12.8°C 100% 11.5 mph W18.5 kmh W 19.6 mph31.5 kmh 29.85 in1010.8 mb - 0.00 in0.0 mm 0.00 in0.0 mm
12:30 AM 54.9°F12.7°C 54.9°F12.7°C 100% 12.7 mph NW20.4 kmh NW 13.8 mph22.2 kmh 29.85 in1010.8 mb - 0.00 in0.0 mm 0.00 in0.0 mm
12:20 AM 54.8°F12.7°C 54.8°F12.7°C 100% 11.5 mph WNW18.5 kmh WNW 25.3 mph40.7 kmh 29.85 in1010.8 mb - 0.00 in0.0 mm 0.00 in0.0 mm
12:10 AM 54.5°F12.5°C 54.5°F12.5°C 100% 11.5 mph W18.5 kmh W 17.3 mph27.8 kmh 29.86 in1011.2 mb - 0.00 in0.0 mm 0.00 in0.0 mm
12:00 AM 54.6°F12.6°C 54.6°F12.6°C 100% 11.5 mph W18.5 kmh W 16.1 mph25.9 kmh 29.86 in1011.2 mb - 0.00 in0.0 mm 0.00 in0.0 mm